createdAt,value
2017-04-28T00:01:35.996Z,5.60
2017-04-28T00:04:04.349Z,5.60
2017-04-28T00:06:32.665Z,5.50
2017-04-28T00:09:01.009Z,5.60
2017-04-28T00:11:29.388Z,5.50
2017-04-28T00:13:57.710Z,5.60
2017-04-28T00:16:26.073Z,5.60
2017-04-28T00:18:54.403Z,5.70
2017-04-28T00:21:22.754Z,5.60
2017-04-28T00:23:51.853Z,5.50
2017-04-28T00:26:21.145Z,5.50
2017-04-28T00:28:49.465Z,5.70
2017-04-28T00:31:17.801Z,5.60
2017-04-28T00:33:46.513Z,5.60
2017-04-28T00:36:14.840Z,5.50
2017-04-28T00:38:43.177Z,5.60
2017-04-28T00:41:11.542Z,5.60
2017-04-28T00:43:40.021Z,5.60
2017-04-28T00:46:08.362Z,5.60
2017-04-28T00:48:36.688Z,5.60
2017-04-28T00:51:05.040Z,5.70
2017-04-28T00:53:34.206Z,5.60
2017-04-28T00:56:02.585Z,5.60
2017-04-28T00:58:30.945Z,5.70
2017-04-28T01:00:59.279Z,5.60
2017-04-28T01:03:27.726Z,5.60
2017-04-28T01:05:56.081Z,5.60
2017-04-28T01:08:24.434Z,5.60
2017-04-28T01:10:52.773Z,5.60
2017-04-28T01:13:21.938Z,5.60
2017-04-28T01:15:50.297Z,5.60
2017-04-28T01:18:18.612Z,5.70
2017-04-28T01:20:46.941Z,5.60
2017-04-28T01:23:15.340Z,5.60
2017-04-28T01:25:43.768Z,5.70
2017-04-28T01:28:12.114Z,5.70
2017-04-28T01:30:40.521Z,5.80
2017-04-28T01:33:08.869Z,5.80
2017-04-28T01:35:37.223Z,5.70
2017-04-28T01:38:05.549Z,5.70
2017-04-28T01:40:34.617Z,5.70
2017-04-28T01:43:02.973Z,5.70
2017-04-28T01:45:35.867Z,5.60
2017-04-28T01:48:04.536Z,5.60
2017-04-28T01:50:32.853Z,5.70
2017-04-28T01:53:01.911Z,5.60
2017-04-28T01:55:30.319Z,5.70
2017-04-28T01:57:59.431Z,5.70
2017-04-28T02:00:27.790Z,5.70
2017-04-28T02:02:56.955Z,5.60
2017-04-28T02:05:25.296Z,5.70
2017-04-28T02:07:53.645Z,5.70
2017-04-28T02:10:22.742Z,5.60
2017-04-28T02:12:51.898Z,5.60
2017-04-28T02:15:20.253Z,5.70
2017-04-28T02:17:48.567Z,5.70
2017-04-28T02:20:16.939Z,5.70
2017-04-28T02:22:45.357Z,5.70
2017-04-28T02:25:13.690Z,5.70
2017-04-28T02:27:42.035Z,5.70
2017-04-28T02:30:10.384Z,5.70
2017-04-28T02:32:40.009Z,5.70
2017-04-28T02:35:08.349Z,5.80
2017-04-28T02:37:37.441Z,5.80
2017-04-28T02:40:05.890Z,5.80
2017-04-28T02:42:34.240Z,5.80
2017-04-28T02:45:02.926Z,5.80
2017-04-28T02:47:31.265Z,5.80
2017-04-28T02:50:00.325Z,5.70
2017-04-28T02:52:28.669Z,5.80
2017-04-28T02:54:57.019Z,5.70
2017-04-28T02:57:26.094Z,5.70
2017-04-28T02:59:54.537Z,5.80
2017-04-28T03:02:22.909Z,5.70
2017-04-28T03:04:51.285Z,5.70
2017-04-28T03:07:19.648Z,5.70
2017-04-28T03:09:47.973Z,5.80
2017-04-28T03:12:16.339Z,5.90
2017-04-28T03:14:44.689Z,5.80
2017-04-28T03:17:13.103Z,5.80
2017-04-28T03:19:41.574Z,5.80
2017-04-28T03:22:09.922Z,5.80
2017-04-28T03:24:38.301Z,5.70
2017-04-28T03:27:06.629Z,5.70
2017-04-28T03:29:35.716Z,5.60
2017-04-28T03:32:04.061Z,5.60
2017-04-28T03:34:32.403Z,5.50
2017-04-28T03:37:00.766Z,5.50
2017-04-28T03:39:29.847Z,5.40
2017-04-28T03:41:58.203Z,5.40
2017-04-28T03:44:26.556Z,5.40
2017-04-28T03:46:54.883Z,5.40
2017-04-28T03:49:23.975Z,5.30
2017-04-28T03:51:53.057Z,5.40
2017-04-28T03:54:21.418Z,5.40
2017-04-28T03:56:49.744Z,5.40
2017-04-28T03:59:18.841Z,5.30
2017-04-28T04:01:47.205Z,5.30
2017-04-28T04:04:16.292Z,5.30
2017-04-28T04:06:44.621Z,5.40
2017-04-28T04:09:12.952Z,5.30
2017-04-28T04:11:42.186Z,5.30
2017-04-28T04:14:10.586Z,5.40
2017-04-28T04:16:38.917Z,5.40
2017-04-28T04:19:07.298Z,5.60
2017-04-28T04:21:35.633Z,5.60
2017-04-28T04:24:04.001Z,5.50
2017-04-28T04:26:32.348Z,5.60
2017-04-28T04:29:00.695Z,5.60
2017-04-28T04:31:29.062Z,5.60
2017-04-28T04:33:58.169Z,5.60
2017-04-28T04:36:26.809Z,5.60
2017-04-28T04:38:55.281Z,5.50
2017-04-28T04:41:23.640Z,5.50
2017-04-28T04:43:52.381Z,5.50
2017-04-28T04:46:21.462Z,5.60
2017-04-28T04:48:50.534Z,5.50
2017-04-28T04:51:18.877Z,5.50
2017-04-28T04:53:47.242Z,5.50
2017-04-28T04:56:16.022Z,5.60
2017-04-28T04:58:44.360Z,5.60
2017-04-28T05:01:12.731Z,5.70
2017-04-28T05:03:41.203Z,5.70
2017-04-28T05:06:09.540Z,5.70
2017-04-28T05:08:37.914Z,5.70
2017-04-28T05:11:06.275Z,5.80
2017-04-28T05:13:35.394Z,5.70
2017-04-28T05:16:04.081Z,5.90
2017-04-28T05:18:32.411Z,5.80
2017-04-28T05:21:00.757Z,5.90
2017-04-28T05:23:29.749Z,5.90
2017-04-28T05:25:58.120Z,5.80
2017-04-28T05:28:26.513Z,5.90
2017-04-28T05:30:54.853Z,5.90
2017-04-28T05:33:23.206Z,5.80
2017-04-28T05:35:52.333Z,5.70
2017-04-28T05:38:20.674Z,5.70
2017-04-28T05:40:49.791Z,5.70
2017-04-28T05:43:19.083Z,5.90
2017-04-28T05:45:47.439Z,6.00
2017-04-28T05:48:16.544Z,6.10
2017-04-28T05:50:45.645Z,6.30
2017-04-28T05:53:14.032Z,6.60
2017-04-28T05:55:42.396Z,6.90
2017-04-28T05:58:11.477Z,7.00
2017-04-28T06:00:40.595Z,6.90
2017-04-28T06:03:08.954Z,7.00
2017-04-28T06:05:38.116Z,6.90
2017-04-28T06:08:06.481Z,7.00
2017-04-28T06:10:35.228Z,6.80
2017-04-28T06:13:03.560Z,6.60
2017-04-28T06:15:31.885Z,6.70
2017-04-28T06:18:00.273Z,6.80
2017-04-28T06:20:28.609Z,6.70
2017-04-28T06:22:56.959Z,6.70
2017-04-28T06:25:25.330Z,6.60
2017-04-28T06:27:53.688Z,6.60
2017-04-28T06:30:22.025Z,6.50
2017-04-28T06:32:51.195Z,6.40
2017-04-28T06:35:19.553Z,6.40
2017-04-28T06:37:48.612Z,6.40
2017-04-28T06:40:16.987Z,6.40
2017-04-28T06:42:45.375Z,6.50
2017-04-28T06:45:14.132Z,6.70
2017-04-28T06:47:42.460Z,7.00
2017-04-28T06:50:10.844Z,7.30
2017-04-28T06:52:39.225Z,7.40
2017-04-28T06:55:07.613Z,7.50
2017-04-28T06:57:37.022Z,7.70
2017-04-28T07:00:05.414Z,7.80
2017-04-28T07:02:33.740Z,7.90
2017-04-28T07:05:02.114Z,7.90
2017-04-28T07:07:30.530Z,8.00
2017-04-28T07:09:58.891Z,7.80
2017-04-28T07:12:27.264Z,7.60
2017-04-28T07:14:55.633Z,7.50
2017-04-28T07:17:23.998Z,7.50
2017-04-28T07:19:52.401Z,7.40
2017-04-28T07:22:20.783Z,7.40
2017-04-28T07:24:49.181Z,7.60
2017-04-28T07:27:17.568Z,7.90
2017-04-28T07:29:46.890Z,8.10
2017-04-28T07:32:15.425Z,8.40
2017-04-28T07:34:43.756Z,8.40
2017-04-28T07:37:12.132Z,8.60
2017-04-28T07:39:40.538Z,8.60
2017-04-28T07:42:08.978Z,8.50
2017-04-28T07:44:38.102Z,8.40
2017-04-28T07:47:06.448Z,8.30
2017-04-28T07:49:34.781Z,8.30
2017-04-28T07:52:03.157Z,8.70
2017-04-28T07:54:31.921Z,9.00
2017-04-28T07:57:00.321Z,9.20
2017-04-28T07:59:28.741Z,9.30
2017-04-28T08:01:57.849Z,9.80
2017-04-28T08:04:26.229Z,9.80
2017-04-28T08:06:54.565Z,9.50
2017-04-28T08:09:22.973Z,9.00
2017-04-28T08:11:51.309Z,8.80
2017-04-28T08:14:19.680Z,8.90
2017-04-28T08:16:48.035Z,8.90
2017-04-28T08:19:16.545Z,9.10
2017-04-28T08:21:44.910Z,9.20
2017-04-28T08:24:13.280Z,9.50
2017-04-28T08:26:41.657Z,9.30
2017-04-28T08:29:10.014Z,9.30
2017-04-28T08:31:38.777Z,9.20
2017-04-28T08:34:07.870Z,9.10
2017-04-28T08:36:36.945Z,9.10
2017-04-28T08:39:05.299Z,9.50
2017-04-28T08:41:33.644Z,9.50
2017-04-28T08:44:01.990Z,9.50
2017-04-28T08:46:31.068Z,9.30
2017-04-28T08:48:59.437Z,9.40
2017-04-28T08:51:27.793Z,9.30
2017-04-28T08:53:56.117Z,9.20
2017-04-28T08:56:25.206Z,9.30
2017-04-28T08:58:54.437Z,9.40
2017-04-28T09:01:22.770Z,9.50
2017-04-28T09:03:51.869Z,9.60
2017-04-28T09:06:20.929Z,9.90
2017-04-28T09:08:49.319Z,10.10
2017-04-28T09:11:17.680Z,10.20
2017-04-28T09:13:46.211Z,10.50
2017-04-28T09:16:14.558Z,10.50
2017-04-28T09:18:42.905Z,10.50
2017-04-28T09:21:11.281Z,10.60
2017-04-28T09:23:39.629Z,10.60
2017-04-28T09:26:07.967Z,10.20
2017-04-28T09:28:36.321Z,10.30
2017-04-28T09:31:04.698Z,10.50
2017-04-28T09:33:33.045Z,10.30
2017-04-28T09:36:01.400Z,10.10
2017-04-28T09:38:29.733Z,10.20
2017-04-28T09:40:58.469Z,9.90
2017-04-28T09:43:26.810Z,9.90
2017-04-28T09:45:55.142Z,9.80
2017-04-28T09:48:23.541Z,9.60
2017-04-28T09:50:51.900Z,9.60
2017-04-28T09:53:20.413Z,9.40
2017-04-28T09:55:48.917Z,9.30
2017-04-28T09:58:17.990Z,9.10
2017-04-28T10:00:46.793Z,9.30
2017-04-28T10:03:16.301Z,8.60
2017-04-28T10:05:45.493Z,8.50
2017-04-28T10:08:14.589Z,8.40
2017-04-28T10:10:42.913Z,8.20
2017-04-28T10:13:11.392Z,8.10
2017-04-28T10:15:39.718Z,8.10
2017-04-28T10:18:08.160Z,8.10
2017-04-28T10:20:36.660Z,8.30
2017-04-28T10:23:04.993Z,8.60
2017-04-28T10:25:34.124Z,8.90
2017-04-28T10:28:03.022Z,9.30
2017-04-28T10:30:31.692Z,9.50
2017-04-28T10:33:00.557Z,9.50
2017-04-28T10:35:30.021Z,9.50
2017-04-28T10:37:59.214Z,9.10
2017-04-28T10:40:28.954Z,8.90
2017-04-28T10:42:57.294Z,8.80
2017-04-28T10:45:25.617Z,8.70
2017-04-28T10:47:54.100Z,8.70
2017-04-28T10:50:23.090Z,8.80
2017-04-28T10:52:51.762Z,9.00
2017-04-28T10:55:20.129Z,9.40
2017-04-28T10:57:48.702Z,9.60
2017-04-28T11:00:17.125Z,9.60
2017-04-28T11:02:46.455Z,9.70
2017-04-28T11:05:15.899Z,9.70
2017-04-28T11:07:44.390Z,9.70
2017-04-28T11:10:12.814Z,9.70
2017-04-28T11:12:41.285Z,9.50
2017-04-28T11:15:09.720Z,9.30
2017-04-28T11:17:41.084Z,9.20
2017-04-28T11:20:09.496Z,9.00
2017-04-28T11:22:38.708Z,8.90
2017-04-28T11:25:07.177Z,8.90
2017-04-28T11:27:35.575Z,8.90
2017-04-28T11:30:04.795Z,9.00
2017-04-28T11:32:33.326Z,9.10
2017-04-28T11:35:01.743Z,9.20
2017-04-28T11:37:30.306Z,9.20
2017-04-28T11:39:59.443Z,8.90
2017-04-28T11:42:27.813Z,9.00
2017-04-28T11:44:56.189Z,9.00
2017-04-28T11:47:24.661Z,8.90
2017-04-28T11:49:52.993Z,8.80
2017-04-28T11:52:21.317Z,9.00
2017-04-28T11:54:49.760Z,9.30
2017-04-28T11:57:18.099Z,9.50
2017-04-28T11:59:46.803Z,9.70
2017-04-28T12:02:15.641Z,9.60
2017-04-28T12:04:43.974Z,9.90
2017-04-28T12:07:12.316Z,10.00
2017-04-28T12:09:40.744Z,10.20
2017-04-28T12:12:09.147Z,10.70
2017-04-28T12:14:38.224Z,11.10
2017-04-28T12:17:06.578Z,12.20
2017-04-28T12:19:35.234Z,12.70
2017-04-28T12:22:03.580Z,12.70
2017-04-28T12:24:31.961Z,12.80
2017-04-28T12:27:00.405Z,12.50
2017-04-28T12:29:28.767Z,12.50
2017-04-28T12:31:57.492Z,12.00
2017-04-28T12:34:26.566Z,11.50
2017-04-28T12:36:54.983Z,11.00
2017-04-28T12:39:23.504Z,10.90
2017-04-28T12:41:51.859Z,10.70
2017-04-28T12:44:20.194Z,10.30
2017-04-28T12:46:48.575Z,10.10
2017-04-28T12:49:17.652Z,9.90
2017-04-28T12:51:46.025Z,9.50
2017-04-28T12:54:14.369Z,9.30
2017-04-28T12:56:42.742Z,9.10
2017-04-28T12:59:11.392Z,9.20
2017-04-28T13:01:40.493Z,9.10
2017-04-28T13:04:08.820Z,8.90
2017-04-28T13:06:37.192Z,8.80
2017-04-28T13:09:05.588Z,8.50
2017-04-28T13:11:33.956Z,8.30
2017-04-28T13:14:02.429Z,8.00
2017-04-28T13:16:30.789Z,8.10
2017-04-28T13:18:59.102Z,8.30
2017-04-28T13:21:27.431Z,8.30
2017-04-28T13:23:55.760Z,8.40
2017-04-28T13:26:24.096Z,8.60
2017-04-28T13:28:52.437Z,8.90
2017-04-28T13:31:20.805Z,9.50
2017-04-28T13:33:49.481Z,10.00
2017-04-28T13:36:18.666Z,10.10
2017-04-28T13:38:47.310Z,10.20
2017-04-28T13:41:15.657Z,10.10
2017-04-28T13:43:43.993Z,10.00
2017-04-28T13:46:12.363Z,9.90
2017-04-28T13:48:40.741Z,10.00
2017-04-28T13:51:10.159Z,10.00
2017-04-28T13:53:38.542Z,10.00
2017-04-28T13:56:06.998Z,9.70
2017-04-28T13:58:35.350Z,9.50
2017-04-28T14:01:03.684Z,9.60
2017-04-28T14:03:32.358Z,9.70
2017-04-28T14:06:00.686Z,9.90
2017-04-28T14:08:29.020Z,10.40
2017-04-28T14:10:58.128Z,10.60
2017-04-28T14:13:26.461Z,10.60
2017-04-28T14:15:54.795Z,10.60
2017-04-28T14:18:23.342Z,10.80
2017-04-28T14:20:51.718Z,10.80
2017-04-28T14:23:20.109Z,10.60
2017-04-28T14:25:49.220Z,10.20
2017-04-28T14:28:17.589Z,10.00
2017-04-28T14:30:46.662Z,9.80
2017-04-28T14:33:15.354Z,9.70
2017-04-28T14:35:44.461Z,9.50
2017-04-28T14:38:13.694Z,9.40
2017-04-28T14:40:42.079Z,9.50
2017-04-28T14:43:10.420Z,9.50
2017-04-28T14:45:39.515Z,9.60
2017-04-28T14:48:07.882Z,10.30
2017-04-28T14:50:36.978Z,11.00
2017-04-28T14:53:06.112Z,11.40
2017-04-28T14:55:34.574Z,11.20
2017-04-28T14:58:03.910Z,10.90
2017-04-28T15:00:32.311Z,10.50
2017-04-28T15:03:00.722Z,10.30
2017-04-28T15:05:29.094Z,11.60
2017-04-28T15:07:58.222Z,12.30
2017-04-28T15:10:27.028Z,11.80
2017-04-28T15:12:55.393Z,11.00
2017-04-28T15:15:35.421Z,10.60
2017-04-28T15:18:03.780Z,10.20
2017-04-28T15:20:32.955Z,10.00
2017-04-28T15:23:02.213Z,9.80
2017-04-28T15:25:30.627Z,9.70
2017-04-28T15:27:59.022Z,9.70
2017-04-28T15:30:28.174Z,9.60
2017-04-28T15:32:56.574Z,9.70
2017-04-28T15:35:24.983Z,9.80
2017-04-28T15:37:53.312Z,9.70
2017-04-28T15:40:23.588Z,9.70
2017-04-28T15:42:51.989Z,9.70
2017-04-28T15:45:20.491Z,9.70
2017-04-28T15:47:48.902Z,9.80
2017-04-28T15:50:18.072Z,9.80
2017-04-28T15:52:46.477Z,9.90
2017-04-28T15:55:15.570Z,9.80
2017-04-28T15:57:43.938Z,9.80
2017-04-28T16:00:12.341Z,9.80
2017-04-28T16:02:41.397Z,9.90
2017-04-28T16:05:09.877Z,10.40
2017-04-28T16:07:38.378Z,10.90
2017-04-28T16:10:07.530Z,11.10
2017-04-28T16:12:36.235Z,10.80
2017-04-28T16:15:04.814Z,10.80
2017-04-28T16:17:33.298Z,10.80
2017-04-28T16:20:01.817Z,11.00
2017-04-28T16:22:30.214Z,11.70
2017-04-28T16:25:00.472Z,12.60
2017-04-28T16:27:28.901Z,13.40
2017-04-28T16:29:57.286Z,13.10
2017-04-28T16:32:25.643Z,12.60
2017-04-28T16:34:54.725Z,11.90
2017-04-28T16:37:23.068Z,11.40
2017-04-28T16:39:51.461Z,10.70
2017-04-28T16:42:19.850Z,10.50
2017-04-28T16:44:48.218Z,10.40
2017-04-28T16:47:16.574Z,10.30
2017-04-28T16:49:44.979Z,10.20
2017-04-28T16:52:14.079Z,10.30
2017-04-28T16:54:42.644Z,10.30
2017-04-28T16:57:11.017Z,10.10
2017-04-28T16:59:39.439Z,10.10
2017-04-28T17:02:08.532Z,10.00
2017-04-28T17:04:37.673Z,9.90
2017-04-28T17:07:06.285Z,9.90
2017-04-28T17:09:34.645Z,9.80
2017-04-28T17:12:02.970Z,10.40
2017-04-28T17:14:32.093Z,10.80
2017-04-28T17:17:00.417Z,11.70
2017-04-28T17:19:28.810Z,11.70
2017-04-28T17:21:57.891Z,11.10
2017-04-28T17:24:26.230Z,10.50
2017-04-28T17:26:54.591Z,10.40
2017-04-28T17:29:22.963Z,10.60
2017-04-28T17:31:51.429Z,11.40
2017-04-28T17:34:20.830Z,11.90
2017-04-28T17:36:49.909Z,12.60
2017-04-28T17:39:19.094Z,13.30
2017-04-28T17:41:47.924Z,13.40
2017-04-28T17:44:16.257Z,12.30
2017-04-28T17:46:44.978Z,11.40
2017-04-28T17:49:13.309Z,11.20
2017-04-28T17:51:41.679Z,10.80
2017-04-28T17:54:10.421Z,10.50
2017-04-28T17:56:38.749Z,10.20
2017-04-28T17:59:07.084Z,9.90
2017-04-28T18:01:35.504Z,10.00
2017-04-28T18:04:03.979Z,9.80
2017-04-28T18:06:32.311Z,9.50
2017-04-28T18:09:00.669Z,9.30
2017-04-28T18:11:29.796Z,8.90
2017-04-28T18:13:58.133Z,8.80
2017-04-28T18:16:27.257Z,8.60
2017-04-28T18:18:55.631Z,8.60
2017-04-28T18:21:24.007Z,8.50
2017-04-28T18:23:52.326Z,8.40
2017-04-28T18:26:21.087Z,8.20
2017-04-28T18:28:49.419Z,8.20
2017-04-28T18:31:17.797Z,8.20
2017-04-28T18:33:46.497Z,8.10
2017-04-28T18:36:14.838Z,8.00
2017-04-28T18:38:43.550Z,8.00
2017-04-28T18:41:12.672Z,7.80
2017-04-28T18:43:41.038Z,7.80
2017-04-28T18:46:09.378Z,7.80
2017-04-28T18:48:37.789Z,7.70
2017-04-28T18:51:06.118Z,7.60
2017-04-28T18:53:34.517Z,7.50
2017-04-28T18:56:02.885Z,7.40
2017-04-28T18:58:31.243Z,7.40
2017-04-28T19:00:59.998Z,7.30
2017-04-28T19:03:28.371Z,7.20
2017-04-28T19:05:56.717Z,7.20
2017-04-28T19:08:25.436Z,7.10
2017-04-28T19:10:53.782Z,7.00
2017-04-28T19:13:22.137Z,6.80
2017-04-28T19:15:50.986Z,6.80
2017-04-28T19:18:19.319Z,6.70
2017-04-28T19:20:47.650Z,6.60
2017-04-28T19:23:16.501Z,6.60
2017-04-28T19:25:44.953Z,6.50
2017-04-28T19:28:13.285Z,6.40
2017-04-28T19:30:41.647Z,6.40
2017-04-28T19:33:10.030Z,6.30
2017-04-28T19:35:38.452Z,6.30
2017-04-28T19:38:06.839Z,6.20
2017-04-28T19:40:35.176Z,6.20
2017-04-28T19:43:03.542Z,6.20
2017-04-28T19:45:31.918Z,6.10
2017-04-28T19:48:00.421Z,6.00
2017-04-28T19:50:28.782Z,5.90
2017-04-28T19:52:57.268Z,5.90
2017-04-28T19:55:25.648Z,5.80
2017-04-28T19:57:54.018Z,5.70
2017-04-28T20:00:22.390Z,5.70
2017-04-28T20:02:50.797Z,5.50
2017-04-28T20:05:19.157Z,5.50
2017-04-28T20:07:47.576Z,5.40
2017-04-28T20:10:15.931Z,5.30
2017-04-28T20:12:44.286Z,5.10
2017-04-28T20:15:12.965Z,4.90
2017-04-28T20:17:41.337Z,4.80
2017-04-28T20:20:09.681Z,4.70
2017-04-28T20:22:39.516Z,4.60
2017-04-28T20:25:07.861Z,4.60
2017-04-28T20:27:36.217Z,4.50
2017-04-28T20:30:04.634Z,4.30
2017-04-28T20:32:33.014Z,4.30
2017-04-28T20:35:02.093Z,4.20
2017-04-28T20:37:30.477Z,4.20
2017-04-28T20:39:58.854Z,4.10
2017-04-28T20:42:27.193Z,4.10
2017-04-28T20:44:55.615Z,3.90
2017-04-28T20:47:23.974Z,3.90
2017-04-28T20:49:52.316Z,3.90
2017-04-28T20:52:20.694Z,3.80
2017-04-28T20:54:49.174Z,3.80
2017-04-28T20:57:17.505Z,3.80
2017-04-28T20:59:45.865Z,3.70
2017-04-28T21:02:14.218Z,3.60
2017-04-28T21:04:42.553Z,3.50
2017-04-28T21:07:11.668Z,3.50
2017-04-28T21:09:40.039Z,3.40
2017-04-28T21:12:08.839Z,3.40
2017-04-28T21:14:37.178Z,3.30
2017-04-28T21:17:06.247Z,3.10
2017-04-28T21:19:34.898Z,3.30
2017-04-28T21:22:03.388Z,3.20
2017-04-28T21:24:31.734Z,3.10
2017-04-28T21:27:00.095Z,3.10
2017-04-28T21:29:29.330Z,3.00
2017-04-28T21:31:57.685Z,3.10
2017-04-28T21:34:26.026Z,3.00
2017-04-28T21:36:54.359Z,3.10
2017-04-28T21:39:22.717Z,3.10
2017-04-28T21:41:51.045Z,3.10
2017-04-28T21:44:19.874Z,3.00
2017-04-28T21:46:48.313Z,2.90
2017-04-28T21:49:16.642Z,2.90
2017-04-28T21:51:44.995Z,2.80
2017-04-28T21:54:14.062Z,2.70
2017-04-28T21:56:42.778Z,2.70
2017-04-28T21:59:11.116Z,2.60
2017-04-28T22:01:39.478Z,2.60
2017-04-28T22:04:07.852Z,2.60
2017-04-28T22:06:36.176Z,2.50
2017-04-28T22:09:04.859Z,2.50
2017-04-28T22:11:34.027Z,2.40
2017-04-28T22:14:02.353Z,2.50
2017-04-28T22:16:36.357Z,2.40
2017-04-28T22:19:05.429Z,2.20
2017-04-28T22:21:33.806Z,2.30
2017-04-28T22:24:02.148Z,2.30
2017-04-28T22:26:30.501Z,2.30
2017-04-28T22:28:58.851Z,2.30
2017-04-28T22:31:27.950Z,2.20
2017-04-28T22:33:55.533Z,2.20
2017-04-28T22:36:23.896Z,2.40
2017-04-28T22:38:52.773Z,2.30
2017-04-28T22:41:21.840Z,2.10
2017-04-28T22:43:50.212Z,3.40
2017-04-28T22:46:18.932Z,2.20
2017-04-28T22:48:47.258Z,2.30
2017-04-28T22:51:25.301Z,2.20
2017-04-28T22:56:47.386Z,2.20
2017-04-28T22:59:15.730Z,2.00
2017-04-28T23:01:45.143Z,1.90
2017-04-28T23:04:13.470Z,2.00
2017-04-28T23:06:41.803Z,2.10
2017-04-28T23:09:10.362Z,1.90
2017-04-28T23:11:39.482Z,1.80
2017-04-28T23:14:07.813Z,1.80
2017-04-28T23:16:36.144Z,1.80
2017-04-28T23:19:04.505Z,1.80
2017-04-28T23:21:32.851Z,1.80
2017-04-28T23:24:01.224Z,1.70
2017-04-28T23:26:29.616Z,1.70
2017-04-28T23:28:57.946Z,1.60
2017-04-28T23:31:26.304Z,1.60
2017-04-28T23:33:54.633Z,1.60
2017-04-28T23:36:22.985Z,1.50
2017-04-28T23:38:51.408Z,1.60
2017-04-28T23:41:20.473Z,1.40
2017-04-28T23:43:49.198Z,1.40
2017-04-28T23:46:18.284Z,1.30
2017-04-28T23:48:47.353Z,1.40
2017-04-28T23:51:16.065Z,1.40
2017-04-28T23:53:45.196Z,1.30
2017-04-28T23:56:13.508Z,1.30
2017-04-28T23:58:41.876Z,1.20
